CheckWX is a tool to help pilots better visualize weather data.  It is not intended as a substitute for an official pre-flight weather briefing.

05:55:05 UTC

MSSA METAR
El Palmer Airport
Santa Ana, El Salvador
Current

7 hours ago

MSSA 012250Z 00000KT 6000 -RA SCT040 23/23 Q1012 A2990
Observed
Jun-1 @ 22:50 UTC
Visibility
6003 meters
Flight Rules
MVFR
Conditions
Light Rain
Cloud Levels
  • Scattered at 4,000' AGL
Temperature
23°C / 73°F
Dewpoint
23°C / 73°F
Humidity
100%
Altimeter
29.88" Hg
Pressure
1011.92 hPa
Previous

8 hours ago

MSSA 012150Z 00000KT 6000 -RA SCT037 23/23 Q1012 A2991
Observed
Jun-1 @ 21:50 UTC
Visibility
6003 meters
Flight Rules
MVFR
Conditions
Light Rain
Cloud Levels
  • Scattered at 3,700' AGL
Temperature
23°C / 73°F
Dewpoint
23°C / 73°F
Humidity
100%
Altimeter
29.88" Hg
Pressure
1011.92 hPa
Previous

13 hours ago

MSSA 011650Z 00000KT 9999 BKN013 24/24 Q1015 A2999
Observed
Jun-1 @ 16:50 UTC
Visibility
10,000+ meters
Flight Rules
MVFR
Cloud Levels
  • Broken at 1,300' AGL
Temperature
24°C / 75°F
Dewpoint
24°C / 75°F
Humidity
100%
Altimeter
29.97" Hg
Pressure
1014.92 hPa